Řízení letového provozu České republiky  
Aktualizace dat:  18.05.2022 00:42:30 UTC English version
   METEO Zobrazení stránky:  18.05.2022 00:43:49 UTC  
vysvětlivky
METAR EDDB 180020Z 09013KT CAVOK 13/05 Q1024 NOSIG=
METAR EDDC 180020Z VRB01KT CAVOK 14/13 Q1023=
METAR EDDE 180020Z AUTO 18006KT 9999 FEW028 16/13 Q1022=
METAR EDDF 180020Z 06003KT CAVOK 16/13 Q1021 NOSIG=
METAR EDDM 180020Z 00000KT CAVOK 10/10 Q1022 NOSIG=
METAR EDDN 180020Z AUTO 09006KT CAVOK 15/11 Q1022=
METAR EDDP 180020Z 08006KT 9000 3000E BCFG NSC 14/13 Q1023 TEMPO 2000 BCFG=
METAR EDQM 180020Z AUTO VRB02KT 9000 // BKN097/// 10/09 Q1023=
METAR EPBY 180030Z 05004KT CAVOK 05/M01 Q1027=
METAR EPGD 180030Z 31004KT CAVOK 01/00 Q1027=
METAR EPKK 180030Z 02008KT CAVOK 09/01 Q1024=
METAR EPKT 180030Z 01003KT CAVOK 06/01 Q1024=
METAR EPLL 180030Z 04009KT CAVOK 07/M02 Q1026=
METAR EPPO 180030Z 07009KT CAVOK 07/M01 Q1027=
METAR EPRZ 180030Z 35006KT CAVOK 07/M01 Q1023=
METAR EPWA 180030Z 36009KT CAVOK 07/M03 Q1025 NOSIG=
METAR EPWR 180030Z 07005KT CAVOK 11/M00 Q1026=
METAR LHBP 180030Z 34006KT CAVOK 14/13 Q1020 NOSIG=
METAR LHSM 180015Z AUTO 34008KT 9000 NCD 13/11 Q1021=
METAR LKBC NIL
METAR LKCS 180030Z AUTO 22004KT CAVOK 09/09 Q1024=
METAR LKCV 180030Z VRB01KT CAVOK 08/07 Q1024 NOSIG RMK BLU BLU=
METAR LKKB 180030Z VRB02KT CAVOK 12/11 Q1023 RMK BLU=
METAR LKKU NIL
METAR LKKV 180000Z 05002KT 9999 0800E R29/1600N BCFG NSC 09/08 Q1024=
METAR LKLN 180030Z AUTO 00000KT 3600 BR NCD 11/10 Q1024=
METAR LKMT 180030Z 03005KT CAVOK 07/07 Q1023 NOSIG=
METAR LKNA 180030Z 33005KT CAVOK 10/09 Q1024 RMK BLU=
METAR LKPD 180030Z 12002KT CAVOK 08/08 Q1024 RMK BLACK=
METAR LKPJ 180030Z AUTO 32006KT 9999 FEW200/// 11/08 Q1023=
METAR LKPR 180030Z 13003KT CAVOK 13/11 Q1023 NOSIG RMK REG QNH 1020=
METAR LKTB 180030Z 03003KT 350V070 CAVOK 11/08 Q1023 NOSIG=
METAR LKVO NIL
METAR LOWI 180020Z AUTO VRB01KT 9999 FEW050 BKN060 17/11 Q1023=
METAR LOWL 180020Z AUTO 07006KT 9999 NSC 14/12 Q1023=
METAR LOWS 180020Z AUTO 15002KT 9999 FEW060 12/11 Q1023=
METAR LOWW 180020Z 33007KT CAVOK 12/09 Q1023 NOSIG=
METAR LZIB 180030Z 34009KT CAVOK 14/07 Q1022 NOSIG=
METAR LZKZ 180030Z 01014KT CAVOK 12/01 Q1020 NOSIG=
METAR LZMC NIL
METAR LZPP 180030Z AUTO 34010KT 9999 NCD 10/09 Q1021=
METAR LZSL NIL
METAR LZTT 180030Z VRB05KT 9999 FEW050 07/01 Q1021=
METAR LZZI 180030Z 10004KT 5000 BR FEW005 08/07 Q1022=